LiveATC.Net - Listen to live air traffic control over the Internet!

Find LiveATC Audio Streams


Airport/ARTCC Code

Frequency Search
(e.g., 124.400, 128.75)
Site-wide search
 


Browse LiveATC Feeds
LiveATC Coverage Map
Top 50 LiveATC Feeds
Bad Weather Areas

LiveATC FAQ
Offer a LiveATC Feed
Contact LiveATC.net
Press Inquiries

LiveATC on iPhone
LiveATC on Android

Windows Phone
Windows 8/10

LiveATC Mobile
(Mobile browser)

ATC Audio Archives
Interesting Recordings

LiveATC Forums

Home Page
About LiveATC.net
Make a Donation
LiveATC Store

Terms of Use
Privacy Policy

Canadian Air Freqs

AIRMETs/SIGMETs

FAA Airport Status
Nat'l Airspace Status
Arrival Demand Charts


Server Software By:
Icecast.org
Liquidsoap


Current Potentially Bad Weather Airports
(updated every 30 minutes - sorted alphabetically by ICAO code)



This page lists LiveATC.net airport areas that may be interesting to listen to because of challenging flying (weather) conditions. Challenging weather conditions include low ceilings, limited visibility, high or gusty winds, or thunderstorms.

Updated: Wed Oct 18 18:10:01 UTC 2017
Click on airport name to go to that airport area's feeds.

CYWG Gnd/Twr/App/Dep Winnipeg James Armstrong Richardson International Airport (Winnipeg, CA-MB)
WX MAP UNAVAILABLENearest METAR:
CYWG 181700Z 26026G39KT 15SM FEW220 13/M05 A2953 RMK CI1 SLP007 DENSITY ALT 1200FT
CYXE Terminal (App/Dep) John G. Diefenbaker International Airport (Saskatoon, CA-SK)
WX MAP UNAVAILABLENearest METAR:
CYXE 181700Z 28030G38KT 15SM SKC 07/M07 A2969 RMK SLP069
EFKK Tower Kokkola-Pietarsaari Airport (Kronoby, Finland)
WX MAP UNAVAILABLENearest METAR:
EFKK 181750Z 29006KT 9999 BKN006 OVC008 05/04 Q1006
EIKN Gnd/Twr/App Ireland West Airport Knock (Charlestown, Ireland)
WX MAP UNAVAILABLENearest METAR:
EIKN 181730Z 13012KT 9000 -DZ BKN005 OVC009 10/09 Q1002 TEMPO 5000
FMMI Twr/App/Center Ivato International Airport (Antananarivo, Madagascar)
WX MAP UNAVAILABLENearest METAR:
FMMI 181730Z 10008KT 9999 -TSRA FEW017CB BKN020 23/18 Q1020 TEMPO 4500 TSRA
KPWT CTAF Bremerton National Airport (Bremerton, US-WA)
kpwtNearest METAR:
KPWT 181756Z AUTO 20007KT 7SM RA OVC004 09/09 A2978 RMK AO2 SLP105 P0007 60015 T00940089 10094 20061 58035
KSQL Ground San Carlos Airport (San Carlos, US-CA)
ksqlNearest METAR:
KSQL 181747Z 00000KT 2SM BR OVC004 11/10 A3010
Bordeaux Control Bordeaux-Merignac Airport (Bordeaux, France)
WX MAP UNAVAILABLENearest METAR:
LFBU 181730Z AUTO 07012KT 030V110 7000 TSRA FEW020/// SCT042/// BKN050/// ///CB 18/15 Q1008
LKAA FIR (High) Prague Vaclav Havel Airport (Prague, Czech Republic)
WX MAP UNAVAILABLENearest METAR:
LKPR 181734Z 28003KT 250V310 1700 -DZ BR BKN003 OVC005 11/11 Q1015 RMK REG QNH 1012
MHLM Gnd/Twr/App Ramon Villeda Morales International Airport (San Pedro Sula, Honduras)
WX MAP UNAVAILABLENearest METAR:
MHLM 181800Z 04009KT 2000 TSRA BKN020CB BKN080 25/25 Q1014 A2994 BECMG 9999
PASC CTAF/Unicom/AFIS/App Deadhorse Airport (Deadhorse, US-AK)
WX MAP UNAVAILABLENearest METAR:
PASC 181753Z 21005KT 2SM BR OVC003 M08/M08 A2926 RMK AO2 SLP909 I1004 I6009 T10781083 11067 21100 53002
TNCA Twr/Apron/FIR Reina Beatrix International Airport (Oranjestad, Aruba)
WX MAP UNAVAILABLENearest METAR:
TNCA 181700Z 09021G32KT 060V120 9999 FEW025 34/26 Q1009 A2982 NOSIG
TTPP Piarco Approach Piarco International Airport (Port of Spain, Trinidad and Tobago)
WX MAP UNAVAILABLENearest METAR:
TTPP 181727Z 06003KT 5000 -TSRA SCT008CB BKN032 25/24 Q1012 NOSIG RMK CB S TO SW
UNNT Gnd/Twr/App/Radar/Misc Tolmachevo Airport (Novosibirsk, Russia)
WX MAP UNAVAILABLENearest METAR:
UNNT 181730Z 09002MPS 6000 OVC003 01/M00 Q1014 R25/090070 R16/090070 NOSIG RMK QBB100 QFE750/1000
USTR Gnd/Twr/App Roshchino International Airport (Tyumen, Russia)
WX MAP UNAVAILABLENearest METAR:
USTR 181730Z VRB01MPS 1300 1100NE R21/P2000 -RA BR BKN002 OVC032 05/05 Q1002 R21/290060 TEMPO 0300 FG VV001 RMK QBB080 QFE742/0990
YBCS App/Dep #1 Cairns International Airport (Cairns, AU-QLD)
WX MAP UNAVAILABLENearest METAR:
YBCS 181758Z 16015KT 2000 TSRA FEW008 SCT020 OVC035 SCT025CB 19/18 Q1011 RETS FM1758 16010KT 9999 -SHRA SCT020 BKN035 TEMPO 1758/2058 VRB15G25KT 1000 TSRA FEW005 BKN008 SCT025CB
YMML/YMMB/YMEN Essendon Airport (Essendon, AU-VIC)
WX MAP UNAVAILABLENearest METAR:
YMML 181735Z 36021G32KT CAVOK 23/08 Q1013 INTER 2000/2035 4000 SHRA BKN030 FM1735 MOD/SEV TURB BLW 5000FT